Terminal Aerodrome Forecast
Issued by NWS

Home | Current Version | Previous Version | Text Only | Print | Product List | Glossary On
Versions: 1 2 3 4 5 6 7 8 9 10 11 12
000
FTUS45 KGJT 251134
TAFCNY
TAF
KCNY 251134Z 2512/2612 22004KT P6SM FEW120 BKN200
     FM251400 18008KT P6SM SCT100 BKN180
     FM251600 22010KT P6SM BKN100
     FM251800 25015G25KT P6SM BKN100
     FM260100 29020G30KT P6SM BKN120
     FM260300 30012G22KT P6SM BKN150
     FM260600 25008KT P6SM BKN130=

USA.gov is the U.S. government's official web portal to all federal, state and local government web resources and services.